CheckWX is a tool to help pilots better visualize weather data.  It is not intended as a substitute for an official pre-flight weather briefing.

02:08:52 UTC

CYXT TAF
Terrace Airport
Terrace, Canada
TAF CYXT 150038Z 1501/1513 VRB03KT 6SM -RA FEW002 SCT006 OVC030 TEMPO 1501/1502 21/2SM -RA BR FEW002 BKN006 OVC015 FM150200 06005KT 11/2SM -RA BR BKN003 OVC007 TEMPO 1502/1513 5SM -RA BR SCT004 BKN008 OVC015 RMK NXT FCST BY 150700Z

Oct-15@
01:00 UTC

Oct-15 @ 01:00 UTC

Oct-15@
02:00 UTC

Oct-15 @ 02:00 UTC

TAF CYXT 150038Z 1501/1513 VRB03KT 6SM -RA FEW002 SCT006 OVC030

Expired

Wind
  • Variable at 3 KTS
Conditions
Light Rain
Cloud Levels
  • Few at 200' AGL
  • Scattered at 600' AGL
  • Overcast at 3,000' AGL

Oct-15@
01:00 UTC

Oct-15 @ 01:00 UTC

Oct-15@
02:00 UTC

Oct-15 @ 02:00 UTC

TEMPO 1501/1502 21/2SM -RA BR FEW002 BKN006 OVC015

Expired

Conditions
Light Rain, Mist
Cloud Levels
  • Few at 200' AGL
  • Broken at 600' AGL
  • Overcast at 1,500' AGL

Oct-15@
02:00 UTC

Oct-15 @ 02:00 UTC

Oct-15@
13:00 UTC

Oct-15 @ 13:00 UTC

FM150200 06005KT 11/2SM -RA BR BKN003 OVC007

From

From Standard forecast or significant change

Wind
  • 060° at 5 KTS
Conditions
Light Rain, Mist
Cloud Levels
  • Broken at 300' AGL
  • Overcast at 700' AGL

Oct-15@
02:00 UTC

Oct-15 @ 02:00 UTC

Oct-15@
13:00 UTC

Oct-15 @ 13:00 UTC

TEMPO 1502/1513 5SM -RA BR SCT004 BKN008 OVC015 RMK NXT FCST BY 150700Z

Temporary

Temporary Changes expected for less than half the time period

Conditions
Light Rain, Mist
Cloud Levels
  • Scattered at 400' AGL
  • Broken at 800' AGL
  • Overcast at 1,500' AGL